createdAt,value
2022-12-26T00:00:57.574Z,82.19
2022-12-26T00:05:15.981Z,82.31
2022-12-26T00:09:24.364Z,82.41
2022-12-26T00:13:40.194Z,82.66
2022-12-26T00:17:50.115Z,82.44
2022-12-26T00:21:59.338Z,82.41
2022-12-26T00:26:09.169Z,82.24
2022-12-26T00:30:17.158Z,82.29
2022-12-26T00:34:24.940Z,82.15
2022-12-26T00:38:32.519Z,82.36
2022-12-26T00:42:40.532Z,82.63
2022-12-26T00:46:49.724Z,82.45
2022-12-26T00:50:58.512Z,82.58
2022-12-26T00:55:07.490Z,82.60
2022-12-26T00:59:15.574Z,82.40
2022-12-26T01:03:23.709Z,82.52
2022-12-26T01:07:34.329Z,82.43
2022-12-26T01:12:02.265Z,82.52
2022-12-26T01:16:11.704Z,82.29
2022-12-26T01:20:20.481Z,82.27
2022-12-26T01:24:28.689Z,82.27
2022-12-26T01:28:36.704Z,82.37
2022-12-26T01:32:44.570Z,82.18
2022-12-26T01:36:52.343Z,82.28
2022-12-26T01:41:17.057Z,82.16
2022-12-26T01:45:33.350Z,82.17
2022-12-26T01:49:45.667Z,82.44
2022-12-26T01:54:37.582Z,82.55
2022-12-26T01:58:28.395Z,82.51
2022-12-26T02:02:56.629Z,82.28
2022-12-26T02:07:07.071Z,81.98
2022-12-26T02:11:17.938Z,82.00
2022-12-26T02:15:25.715Z,81.87
2022-12-26T02:19:41.443Z,81.52
2022-12-26T02:24:26.789Z,81.56
2022-12-26T02:29:02.248Z,81.23
2022-12-26T02:33:21.106Z,81.03
2022-12-26T02:37:40.031Z,80.97
2022-12-26T02:41:50.234Z,81.08
2022-12-26T02:46:23.919Z,80.83
2022-12-26T02:50:55.555Z,81.03
2022-12-26T02:55:23.713Z,80.88
2022-12-26T02:59:55.468Z,80.82
2022-12-26T03:04:21.741Z,80.81
2022-12-26T03:08:51.232Z,80.84
2022-12-26T03:13:13.613Z,80.78
2022-12-26T03:17:25.794Z,80.45
2022-12-26T03:21:35.598Z,80.37
2022-12-26T03:26:03.635Z,80.01
2022-12-26T03:30:31.252Z,80.39
2022-12-26T03:34:43.950Z,80.04
2022-12-26T03:38:59.096Z,79.76
2022-12-26T03:43:29.395Z,79.73
2022-12-26T03:47:59.427Z,79.52
2022-12-26T03:52:30.152Z,78.89
2022-12-26T03:57:04.529Z,79.16
2022-12-26T04:01:34.532Z,79.25
2022-12-26T04:06:04.215Z,78.96
2022-12-26T04:10:32.669Z,78.83
2022-12-26T04:15:02.331Z,78.54
2022-12-26T04:19:26.475Z,78.72
2022-12-26T04:23:56.844Z,78.50
2022-12-26T04:28:23.774Z,78.82
2022-12-26T04:32:55.138Z,78.68
2022-12-26T04:37:22.743Z,78.74
2022-12-26T04:41:48.572Z,78.77
2022-12-26T04:45:57.060Z,78.47
2022-12-26T04:50:14.721Z,79.08
2022-12-26T04:54:23.482Z,78.87
2022-12-26T04:58:31.547Z,78.84
2022-12-26T05:02:56.977Z,78.81
2022-12-26T05:07:23.382Z,79.14
2022-12-26T05:11:32.893Z,78.93
2022-12-26T05:15:56.052Z,78.63
2022-12-26T05:20:21.432Z,78.80
2022-12-26T05:24:48.779Z,78.63
2022-12-26T05:29:01.473Z,79.15
2022-12-26T05:33:26.682Z,78.56
2022-12-26T05:37:35.564Z,78.29
2022-12-26T05:41:43.661Z,78.56
2022-12-26T05:45:51.987Z,78.54
2022-12-26T05:49:59.675Z,78.67
2022-12-26T05:54:07.610Z,78.33
2022-12-26T05:58:15.784Z,78.56
2022-12-26T06:02:23.591Z,78.78
2022-12-26T06:06:33.105Z,78.35
2022-12-26T06:10:40.884Z,78.44
2022-12-26T06:14:48.986Z,78.27
2022-12-26T06:18:57.426Z,78.41
2022-12-26T06:23:05.280Z,77.91
2022-12-26T06:27:13.159Z,78.05
2022-12-26T06:31:23.054Z,77.96
2022-12-26T06:35:31.060Z,78.12
2022-12-26T06:39:40.449Z,77.84
2022-12-26T06:43:48.442Z,77.97
2022-12-26T06:47:56.702Z,77.65
2022-12-26T06:52:04.156Z,77.59
2022-12-26T06:56:14.951Z,77.96
2022-12-26T07:00:23.634Z,77.72
2022-12-26T07:04:31.531Z,77.95
2022-12-26T07:08:39.695Z,77.70
2022-12-26T07:12:47.258Z,77.79
2022-12-26T07:16:55.512Z,77.62
2022-12-26T07:21:03.348Z,77.73
2022-12-26T07:25:13.319Z,78.18
2022-12-26T07:29:22.117Z,77.54
2022-12-26T07:33:31.474Z,78.12
2022-12-26T07:37:39.257Z,77.88
2022-12-26T07:41:59.512Z,77.93
2022-12-26T07:46:07.429Z,77.71
2022-12-26T07:50:16.959Z,77.44
2022-12-26T07:54:24.943Z,78.00
2022-12-26T07:58:33.503Z,78.11
2022-12-26T08:02:41.546Z,77.69
2022-12-26T08:06:51.359Z,77.91
2022-12-26T08:11:03.901Z,77.64
2022-12-26T08:15:15.314Z,77.54
2022-12-26T08:19:22.947Z,77.53
2022-12-26T08:23:31.999Z,77.71
2022-12-26T08:27:41.666Z,77.47
2022-12-26T08:31:49.275Z,77.74
2022-12-26T08:35:58.346Z,77.88
2022-12-26T08:40:43.160Z,77.70
2022-12-26T08:44:54.573Z,77.49
2022-12-26T08:49:03.362Z,77.60
2022-12-26T08:53:11.337Z,77.68
2022-12-26T08:57:19.607Z,77.60
2022-12-26T09:01:28.681Z,77.78
2022-12-26T09:05:37.384Z,78.17
2022-12-26T09:09:45.536Z,78.06
2022-12-26T09:13:53.607Z,78.13
2022-12-26T09:18:01.846Z,78.35
2022-12-26T09:22:33.416Z,78.27
2022-12-26T09:26:43.509Z,78.43
2022-12-26T09:30:51.466Z,77.77
2022-12-26T09:34:58.702Z,77.73
2022-12-26T09:39:09.067Z,77.53
2022-12-26T09:43:25.410Z,77.43
2022-12-26T09:47:39.558Z,77.39
2022-12-26T09:51:49.901Z,77.38
2022-12-26T09:56:00.855Z,77.12
2022-12-26T10:00:13.672Z,77.26
2022-12-26T10:04:29.443Z,76.95
2022-12-26T10:08:58.381Z,76.59
2022-12-26T10:13:13.836Z,76.22
2022-12-26T10:17:26.875Z,76.19
2022-12-26T10:21:43.194Z,76.08
2022-12-26T10:25:54.365Z,75.86
2022-12-26T10:30:08.136Z,75.76
2022-12-26T10:34:21.837Z,75.58
2022-12-26T10:38:35.312Z,75.53
2022-12-26T10:42:46.695Z,75.39
2022-12-26T10:47:24.310Z,75.38
2022-12-26T10:51:33.931Z,75.56
2022-12-26T10:55:41.700Z,75.48
2022-12-26T10:59:53.041Z,75.58
2022-12-26T11:04:02.361Z,75.64
2022-12-26T11:08:18.098Z,75.68
2022-12-26T11:12:29.700Z,75.73
2022-12-26T11:16:43.538Z,75.88
2022-12-26T11:20:52.299Z,75.71
2022-12-26T11:25:28.489Z,75.44
2022-12-26T11:29:38.424Z,74.83
2022-12-26T11:33:48.113Z,74.66
2022-12-26T11:37:58.207Z,74.28
2022-12-26T11:42:13.667Z,74.19
2022-12-26T11:46:22.340Z,73.81
2022-12-26T11:50:56.440Z,73.73
2022-12-26T11:55:28.464Z,73.48
2022-12-26T11:59:37.811Z,73.27
2022-12-26T12:03:49.587Z,73.02
2022-12-26T12:08:22.073Z,72.96
2022-12-26T12:12:34.138Z,72.62
2022-12-26T12:16:59.218Z,72.45
2022-12-26T12:21:14.596Z,72.26
2022-12-26T12:25:44.298Z,72.16
2022-12-26T12:30:15.564Z,72.17
2022-12-26T12:34:34.831Z,72.26
2022-12-26T12:38:56.691Z,72.04
2022-12-26T12:43:15.633Z,71.51
2022-12-26T12:47:33.170Z,71.34
2022-12-26T12:51:50.675Z,71.30
2022-12-26T12:56:19.038Z,71.24
2022-12-26T13:00:34.906Z,71.20
2022-12-26T13:04:45.127Z,71.14
2022-12-26T13:08:55.762Z,71.09
2022-12-26T13:13:09.295Z,70.91
2022-12-26T13:17:22.464Z,70.99
2022-12-26T13:21:32.661Z,71.14
2022-12-26T13:25:46.020Z,71.04
2022-12-26T13:29:59.264Z,71.22
2022-12-26T13:34:09.836Z,71.32
2022-12-26T13:38:18.049Z,71.43
2022-12-26T13:42:55.276Z,71.73
2022-12-26T13:47:04.505Z,71.60
2022-12-26T13:52:02.987Z,71.41
2022-12-26T13:56:43.825Z,71.64
2022-12-26T14:00:56.985Z,71.49
2022-12-26T14:05:13.966Z,71.51
2022-12-26T14:09:37.265Z,71.56
2022-12-26T14:14:02.144Z,71.62
2022-12-26T14:18:24.176Z,71.78
2022-12-26T14:22:41.140Z,71.85
2022-12-26T14:26:53.411Z,71.95
2022-12-26T14:31:13.868Z,72.08
2022-12-26T14:35:30.545Z,72.12
2022-12-26T14:39:44.024Z,72.05
2022-12-26T14:43:57.893Z,72.22
2022-12-26T14:48:06.122Z,72.26
2022-12-26T14:52:43.943Z,72.25
2022-12-26T14:56:53.265Z,72.41
2022-12-26T15:01:40.005Z,72.42
2022-12-26T15:05:50.375Z,72.42
2022-12-26T15:10:23.522Z,72.44
2022-12-26T15:15:18.358Z,72.66
2022-12-26T15:20:07.544Z,72.98
2022-12-26T15:25:18.115Z,73.05
2022-12-26T15:29:39.411Z,73.24
2022-12-26T15:33:52.394Z,73.34
2022-12-26T15:38:16.671Z,73.56
2022-12-26T15:42:38.964Z,73.82
2022-12-26T15:46:51.730Z,73.93
2022-12-26T15:51:04.230Z,74.29
2022-12-26T15:55:44.809Z,74.57
2022-12-26T16:00:09.583Z,74.66
2022-12-26T16:04:23.007Z,74.74
2022-12-26T16:09:01.235Z,74.77
2022-12-26T16:13:23.438Z,75.00
2022-12-26T16:17:32.398Z,74.99
2022-12-26T16:22:02.586Z,74.73
2022-12-26T16:26:16.057Z,74.45
2022-12-26T16:35:01.416Z,75.84
2022-12-26T16:39:12.798Z,75.63
2022-12-26T16:43:30.295Z,75.47
2022-12-26T16:47:39.676Z,75.07
2022-12-26T16:51:51.889Z,75.18
2022-12-26T16:56:14.163Z,74.99
2022-12-26T17:00:24.236Z,75.29
2022-12-26T17:04:34.139Z,75.21
2022-12-26T17:08:47.063Z,75.62
2022-12-26T17:12:56.183Z,75.61
2022-12-26T17:17:06.607Z,76.15
2022-12-26T17:21:32.598Z,76.20
2022-12-26T17:25:43.308Z,76.08
2022-12-26T17:29:59.005Z,76.44
2022-12-26T17:34:14.834Z,76.29
2022-12-26T17:38:25.448Z,76.31
2022-12-26T17:42:38.791Z,76.73
2022-12-26T17:46:46.787Z,76.60
2022-12-26T17:51:02.655Z,76.26
2022-12-26T17:55:22.699Z,76.13
2022-12-26T17:59:33.595Z,76.49
2022-12-26T18:03:43.219Z,76.29
2022-12-26T18:07:55.400Z,76.10
2022-12-26T18:12:03.309Z,75.86
2022-12-26T18:16:14.239Z,76.05
2022-12-26T18:20:27.787Z,75.98
2022-12-26T18:24:35.828Z,75.60
2022-12-26T18:28:44.449Z,75.88
2022-12-26T18:32:53.293Z,75.62
2022-12-26T18:37:03.182Z,75.45
2022-12-26T18:41:15.240Z,75.34
2022-12-26T18:49:57.366Z,75.38
2022-12-26T18:54:06.103Z,75.84
2022-12-26T18:58:16.956Z,75.62
2022-12-26T19:02:28.997Z,75.37
2022-12-26T19:06:40.244Z,75.37
2022-12-26T19:10:54.306Z,75.46
2022-12-26T19:19:34.978Z,75.59
2022-12-26T19:23:42.480Z,75.48
2022-12-26T19:27:51.993Z,75.25
2022-12-26T19:31:59.839Z,75.26
2022-12-26T19:36:10.586Z,75.44
2022-12-26T19:40:24.568Z,75.00
2022-12-26T19:44:33.426Z,74.92
2022-12-26T19:48:41.698Z,75.59
2022-12-26T19:52:50.518Z,75.24
2022-12-26T19:56:58.258Z,75.22
2022-12-26T20:01:13.359Z,75.07
2022-12-26T20:05:52.703Z,75.30
2022-12-26T20:10:00.910Z,75.16
2022-12-26T20:14:16.818Z,75.33
2022-12-26T20:18:25.379Z,74.95
2022-12-26T20:22:33.483Z,75.04
2022-12-26T20:26:43.003Z,74.99
2022-12-26T20:31:01.944Z,75.03
2022-12-26T20:39:43.452Z,74.97
2022-12-26T20:43:52.506Z,75.12
2022-12-26T20:48:01.445Z,75.01
2022-12-26T20:52:09.786Z,75.33
2022-12-26T20:56:21.713Z,75.37
2022-12-26T21:00:31.157Z,75.58
2022-12-26T21:04:41.612Z,75.89
2022-12-26T21:08:52.409Z,76.21
2022-12-26T21:13:01.987Z,76.35
2022-12-26T21:17:18.769Z,76.69
2022-12-26T21:21:28.816Z,76.54
2022-12-26T21:25:37.904Z,76.93
2022-12-26T21:29:45.888Z,77.10
2022-12-26T21:33:55.715Z,77.01
2022-12-26T21:38:04.127Z,76.91
2022-12-26T21:42:12.786Z,76.94
2022-12-26T21:46:22.111Z,77.56
2022-12-26T21:50:29.931Z,77.52
2022-12-26T21:54:59.747Z,77.49
2022-12-26T21:59:24.816Z,77.61
2022-12-26T22:03:50.656Z,78.27
2022-12-26T22:08:00.729Z,78.28
2022-12-26T22:12:28.658Z,78.08
2022-12-26T22:16:36.227Z,78.45
2022-12-26T22:20:46.713Z,78.35
2022-12-26T22:24:54.701Z,78.53
2022-12-26T22:29:02.382Z,78.98
2022-12-26T22:33:10.369Z,78.84
2022-12-26T22:37:18.269Z,79.02
2022-12-26T22:41:25.801Z,78.89
2022-12-26T22:45:34.252Z,78.19
2022-12-26T22:49:41.773Z,78.35
2022-12-26T22:53:50.441Z,77.83
2022-12-26T22:58:02.320Z,77.82
2022-12-26T23:02:10.961Z,77.65
2022-12-26T23:06:27.321Z,77.84
2022-12-26T23:10:36.958Z,77.29
2022-12-26T23:14:46.162Z,77.98
2022-12-26T23:19:15.654Z,78.92
2022-12-26T23:23:25.946Z,79.11
2022-12-26T23:27:51.899Z,79.67
2022-12-26T23:32:00.353Z,79.97
2022-12-26T23:36:12.629Z,80.00
2022-12-26T23:40:23.340Z,80.07
2022-12-26T23:44:31.508Z,79.92
2022-12-26T23:48:38.860Z,79.95
2022-12-26T23:52:46.607Z,80.46
2022-12-26T23:56:54.474Z,80.54
